Overview Statistics Trail Chart Weather Telemetry Raw packets
 

This is the latest recevied telemetry packets stored in our database for station/object DB9VE-12. If no packets are shown the sender has not sent any telemetry packets the latest 10 day(s).

Telemetry packets is used to share measurements like repeteater parameters, battery voltage, radiation readings (or any other measurements).

<< 1 2 3 4 >>
Time Press* Temp.in* Hum* QNH* Temp.out*
1788572145 976.9 hPa 21.7 C deg 59.2 % 1022.1 hPa 0 C deg
1788572137 976.9 hPa 21.7 C deg 59.2 % 1022.1 hPa 0 C deg
1788570333 976.8 hPa 22 C deg 59.2 % 1022 hPa 0 C deg
1788570322 976.8 hPa 22 C deg 59.2 % 1022 hPa 0 C deg
1788568507 977.1 hPa 21.9 C deg 60 % 1022.2 hPa 0 C deg
1788566704 976.6 hPa 22 C deg 60.7 % 1021.7 hPa 0 C deg
1788566692 976.6 hPa 22 C deg 60.7 % 1021.7 hPa 0 C deg
1788564885 976.3 hPa 22 C deg 60.9 % 1021.5 hPa 0 C deg
1788564877 976.3 hPa 22 C deg 60.9 % 1021.5 hPa 0 C deg
1788563062 976.2 hPa 22.1 C deg 61 % 1021.2 hPa 0 C deg
1788561264 975.9 hPa 21.9 C deg 61.8 % 1021 hPa 0 C deg
1788561247 975.9 hPa 21.9 C deg 61.8 % 1021 hPa 0 C deg
1788559444 975.7 hPa 21.4 C deg 64.1 % 1020.9 hPa 0 C deg
1788559432 975.7 hPa 21.4 C deg 64.1 % 1020.9 hPa 0 C deg
1788557630 975.4 hPa 21.6 C deg 61.4 % 1020.5 hPa 0 C deg
1788557616 975.4 hPa 21.6 C deg 61.4 % 1020.5 hPa 0 C deg
1788555810 975 hPa 22.1 C deg 58.3 % 1020.1 hPa 0 C deg
1788555801 975 hPa 22.1 C deg 58.3 % 1020.1 hPa 0 C deg
1788553996 974.8 hPa 22.3 C deg 57.2 % 1019.8 hPa 0 C deg
1788553986 974.8 hPa 22.3 C deg 57.2 % 1019.8 hPa 0 C deg
1788552171 974.6 hPa 22.5 C deg 56.6 % 1019.5 hPa 0 C deg
1788550370 974.1 hPa 22.8 C deg 57 % 1019 hPa 0 C deg
1788550356 974.1 hPa 22.8 C deg 57 % 1019 hPa 0 C deg
1788548550 973.8 hPa 23.2 C deg 56.2 % 1018.6 hPa 0 C deg
1788548541 973.8 hPa 23.2 C deg 56.2 % 1018.6 hPa 0 C deg
*Used Equation Coefficients:
Press: 0, 1, 0
Temp.in: 0, 1, 0
Hum: 0, 1, 0
QNH: 0, 1, 0
Temp.out: 0, 1, 0

  • The parameter names for the analog channels will be Value1, Value2, Value3 (up to Value5) if station has not sent a PARAM-packet that specifies the parameter names for each analog channel.
  • Each analog value is a decimal number between 000 and 255 (according to APRS specifications). The receiver use the telemetry equation coefficientsto to restore the original sensor values. If no EQNS-packet with equation coefficients is sent we will show the values as is (this corresponds to the equation coefficients a=0, b=1 and c=0).
    The sent equation coefficients is used in the equation: a * value2 + b * value + c.
  • The units for the analog values will not be shown if station has not sent a UNIT-packet specifying what unit's to use.
  • The parameter names for the digital bits will be Bit1, Bit2, Bit3 (up to Bit8) if station has not sent a PARAM-packet that specifies the parameter names for each digital bit.
  • All bit labels will be named "On" if station has not sent a UNIT-packet that specifies the label of each bit.
  • A bit is considered to be On when the bit is 1 if station has not sent a BITS-packet that specifies another "Bit sense" (a BITS-packet specify the state of the bits that match the BIT labels)